To NAV CANADA Home Page Login to a new session Search on AWWS site Disclaimer Vers la page française équivalente Tips FAQ What's new on the site To the Forecasts and Observations / NOTAM section To "File a Flight Plan" website Publications and other links Update of the User's profile FIC Telephone Numbers My Weather Data Folder Route Weather Data Regional Weather Data Local Weather Data To the Forecasts and Observations / NOTAM section
Request Generated 03/19/2019 at 23:05:23 UTC . Weather information available at that time is displayed.

METAR/TAF

BIG TROUT LAKE/ON    (show WxCam)

SPECI CYTL 192304Z AUTO 19004KT 1 1/2SM -SN BKN006 OVC011 00/ A2971 RMK VIS VRB 1-2 1/4 TD MISG SLP078=
METAR CYTL 192300Z AUTO 18004KT 1 1/2SM -SN BKN008 OVC014 00/ A2971 RMK VIS VRB 1-2 1/2 TD MISG SLP078=
SPECI CYTL 192257Z AUTO 18004KT 1 3/4SM -SN BKN008 OVC014 00/ A2971 RMK VIS VRB 1-3 TD MISG SLP077=
SPECI CYTL 192256Z AUTO 19004KT 2SM -SN BKN008 OVC014 00/ A2971 RMK VIS VRB 1 1/4-3 TD MISG SLP077=
SPECI CYTL 192255Z AUTO 19004KT 2SM -SN SCT006 OVC011 00/ A2971 RMK VIS VRB 1 1/4-3 TD MISG SLP077=
SPECI CYTL 192247Z AUTO 19005KT 2 1/2SM -SN FEW004 BKN009 OVC014 00/ A2971 RMK VIS VRB 1-3 TD MISG SLP077=
SPECI CYTL 192245Z AUTO 19005KT 2 1/2SM -SN FEW004 BKN011 OVC018 00/ A2970 RMK TD MISG SLP075=
SPECI CYTL 192244Z AUTO 19005KT 2 1/2SM -SN FEW004 BKN009 OVC014 00/ A2970 RMK TD MISG SLP075=
SPECI CYTL 192230Z AUTO 19005KT 2SM -SN FEW004 BKN015 OVC021 00/00 A2970 RMK SLP075=
SPECI CYTL 192207Z AUTO 20005KT 1 3/4SM -SN BKN015 BKN025 OVC030 01/01 A2971 RMK VIS VRB 1 1/2-2 1/2 SLP076=
SPECI CYTL 192205Z AUTO 20007KT 2SM -SN BKN015 BKN025 OVC030 01/01 A2971 RMK VIS VRB 1 1/2-2 1/2 SLP076=
METAR CYTL 192200Z AUTO 21006KT 2SM -SN SCT015 BKN025 OVC032 01/01 A2971 RMK VIS VRB 1 1/2-2 1/2 SLP076=
SPECI CYTL 192156Z AUTO 21006KT 2SM -SN FEW015 BKN025 OVC032 01/01 A2971 RMK VIS VRB 1 1/2-2 1/2 SLP077=
SPECI CYTL 192150Z AUTO 22005KT 1 3/4SM -SN BKN025 OVC030 01/01 A2971 RMK SLP078=
SPECI CYTL 192135Z AUTO 22006KT 2SM -SN BKN028 OVC044 01/01 A2971 RMK VIS VRB 1 1/4-3 SLP079=
SPECI CYTL 192129Z AUTO 22007KT 1 3/4SM -SN BKN028 BKN044 OVC055 01/00 A2971 RMK SLP079=
SPECI CYTL 192124Z AUTO 22006KT 2 1/2SM -SN BKN028 BKN044 OVC055 01/00 A2971 RMK SLP080=
SPECI CYTL 192113Z AUTO 23008KT 4SM -SN BKN028 OVC055 01/M00 A2972 RMK SLP082=
SPECI CYTL 192108Z AUTO 23009KT 4SM -SN -UP BKN026 OVC055 01/M01 A2972 RMK SLP082=
SPECI CYTL 192103Z AUTO 23011KT 3SM -SN -UP BKN024 OVC055 01/M01 A2972 RMK SLP083=
METAR CYTL 192100Z AUTO 23008KT 3SM -SN BKN024 BKN029 OVC055 01/M01 A2972 RMK SLP083=

TAF AMD CYTL 192135Z 1921/2008 22008KT 1SM -SN OVC020 TEMPO 1921/1923
6SM -SNRA BR OVC025
FM192300 VRB03KT 6SM -SN OVC015 TEMPO 1923/2002 11/2SM -SN BR
OVC008
FM200200 VRB03KT 2SM -SN BR OVC005 PROB30 2002/2008 1SM -SN -FZDZ
BR OVC003
RMK FCST BASED ON AUTO OBS. NXT FCST BY 200200Z=
Your time UTC time
Weather data provided by Environment Canada and NAV CANADA